createdAt,value
2022-08-02T00:00:58.982Z,100.00
2022-08-02T00:03:26.667Z,100.00
2022-08-02T00:05:54.320Z,100.00
2022-08-02T00:08:23.536Z,100.00
2022-08-02T00:10:51.341Z,100.00
2022-08-02T00:13:18.961Z,100.00
2022-08-02T00:15:46.570Z,100.00
2022-08-02T00:18:14.176Z,100.00
2022-08-02T00:20:41.805Z,100.00
2022-08-02T00:23:09.383Z,100.00
2022-08-02T00:25:55.603Z,100.00
2022-08-02T00:28:27.474Z,100.00
2022-08-02T00:30:56.222Z,100.00
2022-08-02T00:34:26.537Z,100.00
2022-08-02T00:36:11.493Z,100.00
2022-08-02T00:38:39.112Z,100.00
2022-08-02T00:41:13.125Z,100.00
2022-08-02T00:43:40.821Z,100.00
2022-08-02T00:46:08.493Z,100.00
2022-08-02T00:48:36.139Z,100.00
2022-08-02T00:51:09.168Z,100.00
2022-08-02T00:53:36.763Z,100.00
2022-08-02T00:56:04.775Z,100.00
2022-08-02T00:58:33.755Z,100.00
2022-08-02T01:01:02.033Z,100.00
2022-08-02T01:03:29.791Z,100.00
2022-08-02T01:06:10.940Z,100.00
2022-08-02T01:08:39.328Z,100.00
2022-08-02T01:11:06.978Z,100.00
2022-08-02T01:13:35.983Z,100.00
2022-08-02T01:16:11.123Z,100.00
2022-08-02T01:18:42.590Z,100.00
2022-08-02T01:21:44.731Z,100.00
2022-08-02T01:24:25.833Z,100.00
2022-08-02T01:26:56.920Z,100.00
2022-08-02T01:29:30.455Z,100.00
2022-08-02T01:32:03.450Z,100.00
2022-08-02T01:34:35.559Z,100.00
2022-08-02T01:37:06.830Z,100.00
2022-08-02T01:39:35.479Z,100.00
2022-08-02T01:42:04.640Z,100.00
2022-08-02T01:44:36.595Z,100.00
2022-08-02T01:47:06.833Z,100.00
2022-08-02T01:49:35.877Z,100.00
2022-08-02T01:52:22.730Z,100.00
2022-08-02T01:54:52.076Z,100.00
2022-08-02T01:57:21.153Z,100.00
2022-08-02T01:59:50.820Z,100.00
2022-08-02T02:02:19.263Z,100.00
2022-08-02T02:04:48.147Z,100.00
2022-08-02T02:07:17.026Z,100.00
2022-08-02T02:09:47.762Z,100.00
2022-08-02T02:12:19.530Z,100.00
2022-08-02T02:14:51.460Z,100.00
2022-08-02T02:18:11.865Z,100.00
2022-08-02T02:20:12.072Z,100.00
2022-08-02T02:22:39.703Z,100.00
2022-08-02T02:25:08.928Z,100.00
2022-08-02T02:27:40.834Z,100.00
2022-08-02T02:30:13.043Z,100.00
2022-08-02T02:32:42.815Z,100.00
2022-08-02T02:35:11.715Z,100.00
2022-08-02T02:37:39.864Z,100.00
2022-08-02T02:40:09.614Z,100.00
2022-08-02T02:42:37.746Z,100.00
2022-08-02T02:45:11.105Z,100.00
2022-08-02T02:47:41.157Z,100.00
2022-08-02T02:50:11.800Z,100.00
2022-08-02T02:52:41.089Z,100.00
2022-08-02T02:55:09.932Z,100.00
2022-08-02T02:57:38.179Z,100.00
2022-08-02T03:00:08.203Z,100.00
2022-08-02T03:02:36.044Z,100.00
2022-08-02T03:05:04.128Z,100.00
2022-08-02T03:07:34.924Z,100.00
2022-08-02T03:10:04.449Z,100.00
2022-08-02T03:12:32.651Z,100.00
2022-08-02T03:15:00.766Z,100.00
2022-08-02T03:17:38.663Z,100.00
2022-08-02T03:20:10.464Z,100.00
2022-08-02T03:22:39.628Z,100.00
2022-08-02T03:25:08.508Z,100.00
2022-08-02T03:27:36.383Z,100.00
2022-08-02T03:30:05.871Z,100.00
2022-08-02T03:32:33.815Z,100.00
2022-08-02T03:35:01.852Z,100.00
2022-08-02T03:37:30.625Z,100.00
2022-08-02T03:40:00.270Z,100.00
2022-08-02T03:42:28.880Z,100.00
2022-08-02T03:44:57.023Z,100.00
2022-08-02T03:47:25.374Z,100.00
2022-08-02T03:49:53.302Z,100.00
2022-08-02T03:52:21.121Z,100.00
2022-08-02T03:54:48.851Z,100.00
2022-08-02T03:57:17.957Z,100.00
2022-08-02T03:59:46.845Z,100.00
2022-08-02T04:02:14.755Z,100.00
2022-08-02T04:04:42.635Z,100.00
2022-08-02T04:07:10.323Z,100.00
2022-08-02T04:09:39.104Z,100.00
2022-08-02T04:12:07.016Z,100.00
2022-08-02T04:14:36.813Z,100.00
2022-08-02T04:17:07.340Z,100.00
2022-08-02T04:19:39.454Z,100.00
2022-08-02T04:22:09.209Z,100.00
2022-08-02T04:24:40.056Z,100.00
2022-08-02T04:27:19.680Z,100.00
2022-08-02T04:29:58.918Z,100.00
2022-08-02T04:32:26.550Z,100.00
2022-08-02T04:35:18.193Z,100.00
2022-08-02T04:38:05.487Z,100.00
2022-08-02T04:40:31.876Z,100.00
2022-08-02T04:43:00.225Z,100.00
2022-08-02T04:45:31.143Z,100.00
2022-08-02T04:48:06.568Z,100.00
2022-08-02T04:50:34.279Z,100.00
2022-08-02T04:53:01.969Z,100.00
2022-08-02T04:55:29.892Z,100.00
2022-08-02T04:57:58.549Z,100.00
2022-08-02T05:00:27.455Z,100.00
2022-08-02T05:02:56.863Z,100.00
2022-08-02T05:05:24.519Z,100.00
2022-08-02T05:07:52.229Z,100.00
2022-08-02T05:10:19.963Z,100.00
2022-08-02T05:12:47.598Z,100.00
2022-08-02T05:15:17.995Z,100.00
2022-08-02T05:17:47.647Z,100.00
2022-08-02T05:20:17.305Z,100.00
2022-08-02T05:22:45.551Z,100.00
2022-08-02T05:25:13.231Z,100.00
2022-08-02T05:27:40.922Z,100.00
2022-08-02T05:30:09.888Z,100.00
2022-08-02T05:32:44.194Z,100.00
2022-08-02T05:35:11.807Z,100.00
2022-08-02T05:37:42.170Z,100.00
2022-08-02T05:40:13.227Z,99.02
2022-08-02T05:42:41.306Z,96.70
2022-08-02T05:45:09.454Z,86.38
2022-08-02T05:47:37.124Z,84.81
2022-08-02T05:50:05.459Z,84.13
2022-08-02T05:52:42.907Z,78.20
2022-08-02T05:55:14.174Z,76.78
2022-08-02T05:57:45.676Z,80.96
2022-08-02T06:00:15.874Z,78.04
2022-08-02T06:02:59.414Z,79.35
2022-08-02T06:05:28.471Z,75.54
2022-08-02T06:07:59.555Z,75.93
2022-08-02T06:10:29.060Z,76.51
2022-08-02T06:13:04.268Z,74.03
2022-08-02T06:15:32.163Z,68.53
2022-08-02T06:18:00.012Z,65.85
2022-08-02T06:20:28.139Z,67.00
2022-08-02T06:22:57.639Z,72.81
2022-08-02T06:25:47.970Z,65.67
2022-08-02T06:28:14.824Z,62.63
2022-08-02T06:30:42.818Z,68.02
2022-08-02T06:33:10.575Z,65.38
2022-08-02T06:35:46.283Z,65.70
2022-08-02T06:38:20.184Z,58.50
2022-08-02T06:40:58.136Z,58.22
2022-08-02T06:43:32.582Z,55.76
2022-08-02T06:46:37.542Z,58.09
2022-08-02T06:48:47.904Z,57.28
2022-08-02T06:51:15.887Z,57.46
2022-08-02T06:53:45.435Z,60.37
2022-08-02T06:56:13.397Z,58.18
2022-08-02T06:58:41.069Z,55.69
2022-08-02T07:01:09.764Z,61.20
2022-08-02T07:03:38.504Z,60.13
2022-08-02T07:06:08.941Z,61.04
2022-08-02T07:08:38.383Z,55.10
2022-08-02T07:11:08.041Z,63.38
2022-08-02T07:13:39.705Z,68.10
2022-08-02T07:16:08.455Z,72.64
2022-08-02T07:18:36.516Z,75.32
2022-08-02T07:21:06.102Z,77.26
2022-08-02T07:23:36.745Z,73.71
2022-08-02T07:26:05.879Z,73.03
2022-08-02T07:28:34.987Z,75.42
2022-08-02T07:31:03.330Z,81.17
2022-08-02T07:33:37.493Z,84.05
2022-08-02T07:36:09.668Z,79.91
2022-08-02T07:38:44.311Z,79.93
2022-08-02T07:41:13.380Z,82.48
2022-08-02T07:43:42.407Z,83.99
2022-08-02T07:46:09.978Z,84.21
2022-08-02T07:48:37.591Z,84.76
2022-08-02T07:51:05.262Z,81.58
2022-08-02T07:53:51.076Z,80.30
2022-08-02T07:56:19.299Z,77.56
2022-08-02T07:58:48.246Z,76.60
2022-08-02T08:01:15.943Z,79.86
2022-08-02T08:03:43.563Z,83.61
2022-08-02T08:06:11.167Z,81.98
2022-08-02T08:08:38.739Z,81.57
2022-08-02T08:11:06.414Z,79.08
2022-08-02T08:13:34.946Z,80.76
2022-08-02T08:16:04.078Z,82.48
2022-08-02T08:18:31.659Z,77.82
2022-08-02T08:20:59.296Z,74.24
2022-08-02T08:23:28.498Z,78.99
2022-08-02T08:25:56.483Z,72.62
2022-08-02T08:28:24.045Z,69.13
2022-08-02T08:30:51.680Z,66.50
2022-08-02T08:33:20.675Z,67.01
2022-08-02T08:35:48.903Z,68.85
2022-08-02T08:38:17.395Z,65.26
2022-08-02T08:40:45.559Z,62.61
2022-08-02T08:43:14.716Z,64.68
2022-08-02T08:45:42.608Z,64.68
2022-08-02T08:48:13.801Z,63.29
2022-08-02T08:50:47.387Z,65.21
2022-08-02T08:53:15.280Z,62.36
2022-08-02T08:55:44.209Z,63.43
2022-08-02T08:58:12.676Z,66.20
2022-08-02T09:00:41.423Z,65.90
2022-08-02T09:03:10.193Z,66.78
2022-08-02T09:05:38.591Z,67.88
2022-08-02T09:08:07.955Z,68.63
2022-08-02T09:10:38.104Z,68.62
2022-08-02T09:13:38.162Z,65.43
2022-08-02T09:16:11.648Z,64.16
2022-08-02T09:18:43.620Z,64.31
2022-08-02T09:21:11.632Z,64.27
2022-08-02T09:23:41.833Z,60.82
2022-08-02T09:26:11.520Z,61.45
2022-08-02T09:28:41.563Z,59.07
2022-08-02T09:31:10.353Z,59.15
2022-08-02T09:33:39.178Z,59.56
2022-08-02T09:36:08.522Z,59.79
2022-08-02T09:38:37.840Z,58.94
2022-08-02T09:41:08.379Z,60.21
2022-08-02T09:44:03.871Z,59.33
2022-08-02T09:46:30.364Z,60.85
2022-08-02T09:48:59.741Z,59.13
2022-08-02T09:51:28.784Z,63.05
2022-08-02T09:54:07.943Z,61.86
2022-08-02T09:56:46.244Z,60.89
2022-08-02T09:59:14.684Z,63.25
2022-08-02T10:01:50.861Z,64.98
2022-08-02T10:04:28.502Z,63.04
2022-08-02T10:06:56.188Z,63.59
2022-08-02T10:09:23.800Z,67.51
2022-08-02T10:11:53.196Z,64.96
2022-08-02T10:14:21.344Z,64.54
2022-08-02T10:16:48.969Z,67.06
2022-08-02T10:19:17.235Z,65.45
2022-08-02T10:21:47.023Z,63.86
2022-08-02T10:24:16.482Z,62.57
2022-08-02T10:26:45.901Z,62.10
2022-08-02T10:29:17.499Z,62.98
2022-08-02T10:31:48.810Z,64.81
2022-08-02T10:34:20.000Z,62.49
2022-08-02T10:36:49.060Z,66.63
2022-08-02T10:39:16.935Z,66.60
2022-08-02T10:41:48.732Z,66.56
2022-08-02T10:44:25.362Z,68.25
2022-08-02T10:46:53.751Z,68.14
2022-08-02T10:49:40.068Z,69.23
2022-08-02T10:52:10.160Z,67.16
2022-08-02T10:54:40.254Z,67.46
2022-08-02T10:57:20.643Z,67.66
2022-08-02T10:59:50.390Z,66.71
2022-08-02T11:02:36.800Z,64.27
2022-08-02T11:05:10.960Z,62.67
2022-08-02T11:07:40.547Z,61.53
2022-08-02T11:10:40.068Z,63.94
2022-08-02T11:13:13.865Z,61.44
2022-08-02T11:15:55.228Z,62.97
2022-08-02T11:18:23.876Z,60.68
2022-08-02T11:21:21.873Z,62.68
2022-08-02T11:23:49.811Z,65.46
2022-08-02T11:26:45.780Z,65.42
2022-08-02T11:29:15.872Z,64.31
2022-08-02T11:31:46.388Z,62.82
2022-08-02T11:34:28.915Z,58.57
2022-08-02T11:37:02.388Z,60.24
2022-08-02T11:39:29.996Z,62.83
2022-08-02T11:41:58.910Z,60.63
2022-08-02T11:44:27.938Z,61.31
2022-08-02T11:46:58.617Z,57.75
2022-08-02T11:49:26.380Z,57.40
2022-08-02T11:52:00.333Z,56.38
2022-08-02T11:54:30.386Z,54.96
2022-08-02T11:57:14.427Z,56.21
2022-08-02T11:59:47.555Z,56.63
2022-08-02T12:02:17.540Z,57.83
2022-08-02T12:04:53.181Z,58.18
2022-08-02T12:07:34.338Z,56.90
2022-08-02T12:10:04.348Z,57.81
2022-08-02T12:12:31.949Z,56.84
2022-08-02T12:14:59.631Z,60.56
2022-08-02T12:17:47.780Z,58.30
2022-08-02T12:20:17.134Z,55.30
2022-08-02T12:22:45.599Z,55.05
2022-08-02T12:25:34.330Z,54.59
2022-08-02T12:28:17.814Z,51.99
2022-08-02T12:30:53.511Z,55.09
2022-08-02T12:33:23.745Z,53.43
2022-08-02T12:35:51.574Z,53.51
2022-08-02T12:38:19.220Z,53.50
2022-08-02T12:40:47.711Z,52.64
2022-08-02T12:43:20.902Z,53.77
2022-08-02T12:45:50.540Z,54.20
2022-08-02T12:48:18.999Z,55.50
2022-08-02T12:50:47.949Z,52.40
2022-08-02T12:53:17.860Z,52.23
2022-08-02T12:56:01.046Z,53.11
2022-08-02T12:58:31.423Z,53.94
2022-08-02T13:01:00.716Z,53.75
2022-08-02T13:04:11.629Z,54.84
2022-08-02T13:06:43.090Z,55.31
2022-08-02T13:09:13.570Z,55.47
2022-08-02T13:11:43.346Z,55.42
2022-08-02T13:14:11.385Z,53.98
2022-08-02T13:16:40.722Z,53.77
2022-08-02T13:19:08.364Z,57.08
2022-08-02T13:21:40.610Z,56.78
2022-08-02T13:24:39.254Z,57.46
2022-08-02T13:27:12.901Z,59.92
2022-08-02T13:29:40.506Z,59.74
2022-08-02T13:32:08.117Z,54.61
2022-08-02T13:34:35.977Z,56.98
2022-08-02T13:37:05.449Z,58.29
2022-08-02T13:39:33.380Z,57.10
2022-08-02T13:42:01.034Z,55.74
2022-08-02T13:44:28.719Z,53.75
2022-08-02T13:46:56.337Z,55.04
2022-08-02T13:49:50.600Z,52.97
2022-08-02T13:52:14.654Z,54.23
2022-08-02T13:54:42.607Z,54.15
2022-08-02T13:57:10.194Z,54.49
2022-08-02T13:59:56.654Z,53.23
2022-08-02T14:02:25.588Z,50.54
2022-08-02T14:04:53.191Z,52.21
2022-08-02T14:07:22.469Z,51.95
2022-08-02T14:09:50.040Z,54.29
2022-08-02T14:12:17.740Z,53.22
2022-08-02T14:14:45.807Z,50.88
2022-08-02T14:17:13.936Z,51.91
2022-08-02T14:19:41.547Z,49.21
2022-08-02T14:22:10.513Z,51.08
2022-08-02T14:24:42.433Z,49.25
2022-08-02T14:27:10.372Z,47.34
2022-08-02T14:29:38.020Z,48.87
2022-08-02T14:32:06.539Z,50.20
2022-08-02T14:34:34.136Z,50.56
2022-08-02T14:37:01.746Z,49.76
2022-08-02T14:39:43.067Z,53.37
2022-08-02T14:42:18.738Z,52.59
2022-08-02T14:44:46.432Z,51.36
2022-08-02T14:47:14.072Z,49.33
2022-08-02T14:49:43.474Z,48.79
2022-08-02T14:52:14.682Z,48.77
2022-08-02T14:54:43.049Z,50.15
2022-08-02T14:57:11.143Z,50.34
2022-08-02T14:59:42.555Z,47.96
2022-08-02T15:02:13.253Z,48.80
2022-08-02T15:04:42.946Z,49.00
2022-08-02T15:07:11.485Z,51.49
2022-08-02T15:09:39.783Z,51.07
2022-08-02T15:12:09.072Z,49.62
2022-08-02T15:14:36.672Z,48.63
2022-08-02T15:17:06.009Z,47.63
2022-08-02T15:19:58.943Z,48.04
2022-08-02T15:22:21.546Z,49.10
2022-08-02T15:24:49.773Z,47.46
2022-08-02T15:27:17.830Z,47.05
2022-08-02T15:29:46.956Z,47.12
2022-08-02T15:32:18.722Z,46.38
2022-08-02T15:34:46.690Z,46.69
2022-08-02T15:37:14.328Z,44.84
2022-08-02T15:39:41.949Z,45.75
2022-08-02T15:42:09.909Z,44.21
2022-08-02T15:44:39.032Z,44.80
2022-08-02T15:47:07.534Z,45.06
2022-08-02T15:49:40.870Z,46.73
2022-08-02T15:52:09.273Z,44.47
2022-08-02T15:54:36.855Z,45.55
2022-08-02T15:57:04.488Z,44.83
2022-08-02T15:59:32.096Z,44.82
2022-08-02T16:02:00.110Z,43.42
2022-08-02T16:04:27.834Z,43.79
2022-08-02T16:06:56.769Z,43.93
2022-08-02T16:09:24.352Z,43.23
2022-08-02T16:11:51.981Z,43.82
2022-08-02T16:14:19.579Z,42.57
2022-08-02T16:16:47.178Z,42.84
2022-08-02T16:19:47.461Z,43.22
2022-08-02T16:22:03.812Z,42.88
2022-08-02T16:24:31.679Z,42.99
2022-08-02T16:26:59.378Z,41.97
2022-08-02T16:29:27.040Z,41.32
2022-08-02T16:32:00.994Z,43.53
2022-08-02T16:34:44.864Z,39.82
2022-08-02T16:37:17.566Z,39.08
2022-08-02T16:39:45.172Z,40.10
2022-08-02T16:42:12.754Z,38.47
2022-08-02T16:44:53.551Z,39.42
2022-08-02T16:47:42.855Z,39.05
2022-08-02T16:50:11.133Z,38.75
2022-08-02T16:52:40.419Z,38.33
2022-08-02T16:55:11.320Z,38.99
2022-08-02T16:57:43.509Z,38.85
2022-08-02T17:00:15.557Z,38.17
2022-08-02T17:02:43.792Z,37.89
2022-08-02T17:05:14.402Z,37.93
2022-08-02T17:08:15.681Z,38.69
2022-08-02T17:10:33.469Z,38.04
2022-08-02T17:13:11.094Z,38.58
2022-08-02T17:16:17.278Z,38.54
2022-08-02T17:18:27.868Z,38.31
2022-08-02T17:20:56.313Z,38.67
2022-08-02T17:24:04.124Z,38.74
2022-08-02T17:26:13.468Z,38.47
2022-08-02T17:28:50.829Z,39.25
2022-08-02T17:31:29.678Z,40.11
2022-08-02T17:33:58.354Z,40.83
2022-08-02T17:36:26.205Z,40.92
2022-08-02T17:38:55.213Z,41.26
2022-08-02T17:41:37.726Z,41.45
2022-08-02T17:44:08.652Z,41.75
2022-08-02T17:46:37.192Z,41.58
2022-08-02T17:49:17.369Z,42.24
2022-08-02T17:52:15.466Z,42.60
2022-08-02T17:54:34.815Z,42.20
2022-08-02T17:57:02.495Z,42.49
2022-08-02T17:59:41.513Z,42.48
2022-08-02T18:02:11.300Z,43.04
2022-08-02T18:04:39.508Z,43.76
2022-08-02T18:07:09.352Z,43.33
2022-08-02T18:09:43.341Z,43.29
2022-08-02T18:12:14.191Z,43.75
2022-08-02T18:14:48.812Z,43.85
2022-08-02T18:17:16.751Z,43.11
2022-08-02T18:19:57.269Z,42.47
2022-08-02T18:22:31.126Z,42.45
2022-08-02T18:25:00.593Z,44.25
2022-08-02T18:27:39.090Z,45.17
2022-08-02T18:30:08.831Z,45.83
2022-08-02T18:33:55.982Z,46.65
2022-08-02T18:35:29.414Z,48.10
2022-08-02T18:38:03.527Z,48.52
2022-08-02T18:40:32.849Z,49.51
2022-08-02T18:43:03.473Z,50.74
2022-08-02T18:45:36.874Z,51.34
2022-08-02T18:48:22.536Z,52.37
2022-08-02T18:50:53.560Z,53.85
2022-08-02T18:53:28.306Z,55.09
2022-08-02T18:56:19.616Z,56.33
2022-08-02T18:58:59.616Z,56.37
2022-08-02T19:01:33.518Z,58.39
2022-08-02T19:04:03.848Z,59.81
2022-08-02T19:06:31.672Z,60.80
2022-08-02T19:09:05.667Z,61.51
2022-08-02T19:11:40.766Z,63.59
2022-08-02T19:14:09.170Z,64.29
2022-08-02T19:16:38.153Z,66.96
2022-08-02T19:19:06.333Z,68.10
2022-08-02T19:22:16.781Z,69.48
2022-08-02T19:24:22.105Z,73.41
2022-08-02T19:26:52.482Z,75.06
2022-08-02T19:29:25.190Z,76.39
2022-08-02T19:32:08.648Z,79.44
2022-08-02T19:34:58.414Z,83.56
2022-08-02T19:37:26.106Z,84.24
2022-08-02T19:40:05.574Z,88.75
2022-08-02T19:44:21.533Z,93.67
2022-08-02T19:45:49.065Z,93.32
2022-08-02T19:48:14.429Z,96.41
2022-08-02T19:50:44.215Z,100.00
2022-08-02T19:53:17.960Z,100.00
2022-08-02T19:56:01.177Z,100.00
2022-08-02T19:58:32.513Z,100.00
2022-08-02T20:01:00.405Z,100.00
2022-08-02T20:03:50.999Z,100.00
2022-08-02T20:06:17.681Z,100.00
2022-08-02T20:08:53.066Z,100.00
2022-08-02T20:11:24.951Z,100.00
2022-08-02T20:13:54.032Z,100.00
2022-08-02T20:16:28.346Z,100.00
2022-08-02T20:19:01.001Z,100.00
2022-08-02T20:21:35.748Z,100.00
2022-08-02T20:24:05.982Z,100.00
2022-08-02T20:26:35.466Z,100.00
2022-08-02T20:29:05.147Z,100.00
2022-08-02T20:31:33.191Z,100.00
2022-08-02T20:34:00.832Z,100.00
2022-08-02T20:36:28.895Z,100.00
2022-08-02T20:38:56.580Z,100.00
2022-08-02T20:41:37.329Z,100.00
2022-08-02T20:44:15.405Z,100.00
2022-08-02T20:46:44.833Z,100.00
2022-08-02T20:49:21.552Z,100.00
2022-08-02T20:51:50.843Z,100.00
2022-08-02T20:54:21.357Z,100.00
2022-08-02T20:56:50.634Z,100.00
2022-08-02T21:02:07.856Z,100.00
2022-08-02T21:04:41.409Z,100.00
2022-08-02T21:07:11.485Z,100.00
2022-08-02T21:09:53.849Z,100.00
2022-08-02T21:12:30.108Z,100.00
2022-08-02T21:14:59.713Z,100.00
2022-08-02T21:17:42.566Z,100.00
2022-08-02T21:20:16.852Z,100.00
2022-08-02T21:22:44.774Z,100.00
2022-08-02T21:25:15.658Z,100.00
2022-08-02T21:27:52.792Z,100.00
2022-08-02T21:30:24.143Z,100.00
2022-08-02T21:32:54.800Z,100.00
2022-08-02T21:35:25.386Z,100.00
2022-08-02T21:37:57.999Z,100.00
2022-08-02T21:40:26.134Z,100.00
2022-08-02T21:42:54.786Z,100.00
2022-08-02T21:45:24.020Z,100.00
2022-08-02T21:47:56.131Z,100.00
2022-08-02T21:50:23.783Z,100.00
2022-08-02T21:52:53.315Z,100.00
2022-08-02T21:55:23.956Z,100.00
2022-08-02T21:58:09.000Z,100.00
2022-08-02T22:00:37.996Z,100.00
2022-08-02T22:03:22.977Z,100.00
2022-08-02T22:05:50.996Z,100.00
2022-08-02T22:08:18.624Z,100.00
2022-08-02T22:11:04.831Z,100.00
2022-08-02T22:13:47.627Z,100.00
2022-08-02T22:16:18.305Z,100.00
2022-08-02T22:18:51.280Z,100.00
2022-08-02T22:21:20.409Z,100.00
2022-08-02T22:23:51.357Z,100.00
2022-08-02T22:26:19.786Z,100.00
2022-08-02T22:28:51.090Z,100.00
2022-08-02T22:31:40.337Z,100.00
2022-08-02T22:34:26.624Z,100.00
2022-08-02T22:36:56.073Z,100.00
2022-08-02T22:39:23.710Z,100.00
2022-08-02T22:42:06.615Z,100.00
2022-08-02T22:44:38.975Z,100.00
2022-08-02T22:47:14.962Z,100.00
2022-08-02T22:49:51.924Z,100.00
2022-08-02T22:52:22.406Z,100.00
2022-08-02T22:54:50.853Z,100.00
2022-08-02T22:57:30.145Z,100.00
2022-08-02T22:58:56.733Z,100.00
2022-08-02T22:59:59.106Z,100.00
2022-08-02T23:02:28.311Z,100.00
2022-08-02T23:04:57.892Z,100.00
2022-08-02T23:07:25.507Z,100.00
2022-08-02T23:09:53.150Z,100.00
2022-08-02T23:12:21.119Z,100.00
2022-08-02T23:14:50.191Z,100.00
2022-08-02T23:17:35.579Z,100.00
2022-08-02T23:20:06.016Z,100.00
2022-08-02T23:22:34.295Z,100.00
2022-08-02T23:25:02.263Z,100.00
2022-08-02T23:27:30.068Z,100.00
2022-08-02T23:29:57.887Z,100.00
2022-08-02T23:32:26.096Z,100.00
2022-08-02T23:34:53.943Z,100.00
2022-08-02T23:37:23.524Z,100.00
2022-08-02T23:39:51.507Z,100.00
2022-08-02T23:42:19.438Z,100.00
2022-08-02T23:44:47.183Z,100.00
2022-08-02T23:47:16.749Z,100.00
2022-08-02T23:49:44.521Z,100.00
2022-08-02T23:52:12.544Z,100.00
2022-08-02T23:54:41.538Z,100.00
2022-08-02T23:57:20.319Z,100.00
2022-08-02T23:59:49.715Z,100.00
